sensor_id;sensor_type;location;lat;lon;timestamp;pressure;altitude;pressure_sealevel;temperature;humidity
51031;BME280;37058;41.442;23.240;2023-04-15T00:01:30;99863.91;;;8.75;100.00
51031;BME280;37058;41.442;23.240;2023-04-15T00:03:58;99866.63;;;8.75;100.00
51031;BME280;37058;41.442;23.240;2023-04-15T00:06:24;99865.66;;;8.81;100.00
51031;BME280;37058;41.442;23.240;2023-04-15T00:08:51;99862.91;;;8.81;100.00
51031;BME280;37058;41.442;23.240;2023-04-15T00:11:17;99859.41;;;8.86;100.00
51031;BME280;37058;41.442;23.240;2023-04-15T00:13:43;99856.44;;;8.87;100.00
51031;BME280;37058;41.442;23.240;2023-04-15T00:16:10;99850.75;;;8.89;100.00
51031;BME280;37058;41.442;23.240;2023-04-15T00:18:36;99852.97;;;8.92;100.00
51031;BME280;37058;41.442;23.240;2023-04-15T00:21:03;99858.72;;;8.96;100.00
51031;BME280;37058;41.442;23.240;2023-04-15T00:23:29;99857.66;;;8.97;100.00
51031;BME280;37058;41.442;23.240;2023-04-15T00:25:56;99865.53;;;8.98;100.00
51031;BME280;37058;41.442;23.240;2023-04-15T00:28:22;99863.16;;;9.02;100.00
51031;BME280;37058;41.442;23.240;2023-04-15T00:30:48;99865.13;;;9.06;100.00
51031;BME280;37058;41.442;23.240;2023-04-15T00:33:14;99869.72;;;9.06;100.00
51031;BME280;37058;41.442;23.240;2023-04-15T00:35:43;99860.47;;;9.07;100.00
51031;BME280;37058;41.442;23.240;2023-04-15T00:38:09;99857.22;;;9.10;100.00
51031;BME280;37058;41.442;23.240;2023-04-15T00:40:35;99852.09;;;9.14;100.00
51031;BME280;37058;41.442;23.240;2023-04-15T00:43:01;99852.09;;;9.14;100.00
51031;BME280;37058;41.442;23.240;2023-04-15T00:45:27;99855.09;;;9.12;100.00
51031;BME280;37058;41.442;23.240;2023-04-15T00:47:53;99846.34;;;9.10;100.00
51031;BME280;37058;41.442;23.240;2023-04-15T00:50:20;99852.88;;;9.09;100.00
51031;BME280;37058;41.442;23.240;2023-04-15T00:52:46;99853.13;;;9.07;100.00
51031;BME280;37058;41.442;23.240;2023-04-15T00:55:12;99847.97;;;9.11;100.00
51031;BME280;37058;41.442;23.240;2023-04-15T00:57:39;99851.53;;;9.11;100.00
51031;BME280;37058;41.442;23.240;2023-04-15T01:00:06;99853.06;;;9.02;100.00
51031;BME280;37058;41.442;23.240;2023-04-15T01:02:36;99850.81;;;8.94;100.00
51031;BME280;37058;41.442;23.240;2023-04-15T01:05:02;99855.94;;;8.90;100.00
51031;BME280;37058;41.442;23.240;2023-04-15T01:07:29;99859.69;;;8.84;100.00
51031;BME280;37058;41.442;23.240;2023-04-15T01:09:55;99860.91;;;8.72;100.00
51031;BME280;37058;41.442;23.240;2023-04-15T01:12:23;99857.22;;;8.61;100.00
51031;BME280;37058;41.442;23.240;2023-04-15T01:14:51;99855.00;;;8.58;100.00
51031;BME280;37058;41.442;23.240;2023-04-15T01:17:17;99872.91;;;8.54;100.00
51031;BME280;37058;41.442;23.240;2023-04-15T01:19:44;99875.66;;;8.54;100.00
51031;BME280;37058;41.442;23.240;2023-04-15T01:22:10;99874.63;;;8.60;100.00
51031;BME280;37058;41.442;23.240;2023-04-15T01:24:36;99877.50;;;8.53;100.00
51031;BME280;37058;41.442;23.240;2023-04-15T01:27:04;99879.34;;;8.48;100.00
51031;BME280;37058;41.442;23.240;2023-04-15T01:29:32;99885.38;;;8.50;100.00
51031;BME280;37058;41.442;23.240;2023-04-15T01:31:58;99888.03;;;8.44;100.00
51031;BME280;37058;41.442;23.240;2023-04-15T01:34:23;99888.16;;;8.38;100.00
51031;BME280;37058;41.442;23.240;2023-04-15T01:36:49;99888.78;;;8.40;100.00
51031;BME280;37058;41.442;23.240;2023-04-15T01:39:15;99900.00;;;8.43;100.00
51031;BME280;37058;41.442;23.240;2023-04-15T01:41:41;99902.78;;;8.49;100.00
51031;BME280;37058;41.442;23.240;2023-04-15T01:44:08;99901.78;;;8.55;100.00
51031;BME280;37058;41.442;23.240;2023-04-15T01:46:34;99907.56;;;8.58;100.00
51031;BME280;37058;41.442;23.240;2023-04-15T01:49:00;99900.22;;;8.59;100.00
51031;BME280;37058;41.442;23.240;2023-04-15T01:51:26;99901.34;;;8.63;100.00
51031;BME280;37058;41.442;23.240;2023-04-15T01:53:52;99908.16;;;8.65;100.00
51031;BME280;37058;41.442;23.240;2023-04-15T01:56:21;99910.66;;;8.67;100.00
51031;BME280;37058;41.442;23.240;2023-04-15T01:58:48;99920.53;;;8.73;100.00
51031;BME280;37058;41.442;23.240;2023-04-15T02:01:14;99923.06;;;8.80;100.00
51031;BME280;37058;41.442;23.240;2023-04-15T02:03:41;99914.38;;;8.83;100.00
51031;BME280;37058;41.442;23.240;2023-04-15T02:06:07;99919.59;;;8.84;100.00
51031;BME280;37058;41.442;23.240;2023-04-15T02:08:33;99912.88;;;8.92;100.00
51031;BME280;37058;41.442;23.240;2023-04-15T02:10:59;99921.63;;;8.94;100.00
51031;BME280;37058;41.442;23.240;2023-04-15T02:13:25;99931.19;;;8.97;100.00
51031;BME280;37058;41.442;23.240;2023-04-15T02:15:51;99928.25;;;9.03;100.00
51031;BME280;37058;41.442;23.240;2023-04-15T02:18:17;99920.41;;;9.07;100.00
51031;BME280;37058;41.442;23.240;2023-04-15T02:20:43;99921.53;;;9.11;100.00
51031;BME280;37058;41.442;23.240;2023-04-15T02:23:10;99921.28;;;9.13;100.00
51031;BME280;37058;41.442;23.240;2023-04-15T02:25:36;99918.84;;;9.16;100.00
51031;BME280;37058;41.442;23.240;2023-04-15T02:28:04;99904.94;;;9.13;100.00
51031;BME280;37058;41.442;23.240;2023-04-15T02:30:32;99907.66;;;9.13;100.00
51031;BME280;37058;41.442;23.240;2023-04-15T02:32:59;99917.22;;;9.15;100.00
51031;BME280;37058;41.442;23.240;2023-04-15T02:35:25;99915.59;;;9.14;100.00
51031;BME280;37058;41.442;23.240;2023-04-15T02:37:51;99920.47;;;9.12;100.00
51031;BME280;37058;41.442;23.240;2023-04-15T02:40:18;99916.94;;;9.11;100.00
51031;BME280;37058;41.442;23.240;2023-04-15T02:42:44;99920.72;;;9.10;100.00
51031;BME280;37058;41.442;23.240;2023-04-15T02:45:10;99905.47;;;9.09;100.00
51031;BME280;37058;41.442;23.240;2023-04-15T02:47:37;99906.78;;;9.07;100.00
51031;BME280;37058;41.442;23.240;2023-04-15T02:50:11;99920.66;;;9.05;100.00
51031;BME280;37058;41.442;23.240;2023-04-15T02:52:41;99911.66;;;9.05;100.00
51031;BME280;37058;41.442;23.240;2023-04-15T02:55:08;99924.19;;;9.06;100.00
51031;BME280;37058;41.442;23.240;2023-04-15T02:57:34;99925.84;;;9.07;100.00
51031;BME280;37058;41.442;23.240;2023-04-15T03:00:03;99932.13;;;9.07;100.00
51031;BME280;37058;41.442;23.240;2023-04-15T03:02:37;99919.59;;;9.06;100.00
51031;BME280;37058;41.442;23.240;2023-04-15T03:05:04;99929.06;;;9.04;100.00
51031;BME280;37058;41.442;23.240;2023-04-15T03:07:30;99926.34;;;9.04;100.00
51031;BME280;37058;41.442;23.240;2023-04-15T03:09:56;99934.03;;;9.07;100.00
51031;BME280;37058;41.442;23.240;2023-04-15T03:12:22;99947.25;;;8.98;100.00
51031;BME280;37058;41.442;23.240;2023-04-15T03:14:48;99950.72;;;8.94;100.00
51031;BME280;37058;41.442;23.240;2023-04-15T03:17:14;99941.44;;;8.89;100.00
51031;BME280;37058;41.442;23.240;2023-04-15T03:19:40;99943.06;;;8.90;100.00
51031;BME280;37058;41.442;23.240;2023-04-15T03:22:06;99939.28;;;8.92;100.00
51031;BME280;37058;41.442;23.240;2023-04-15T03:24:31;99934.91;;;8.90;100.00
51031;BME280;37058;41.442;23.240;2023-04-15T03:26:57;99949.09;;;8.93;100.00
51031;BME280;37058;41.442;23.240;2023-04-15T03:29:23;99952.63;;;8.93;100.00
51031;BME280;37058;41.442;23.240;2023-04-15T03:31:51;99957.56;;;8.96;100.00
51031;BME280;37058;41.442;23.240;2023-04-15T03:34:17;99956.00;;;9.00;100.00
51031;BME280;37058;41.442;23.240;2023-04-15T03:36:43;99953.59;;;9.04;100.00
51031;BME280;37058;41.442;23.240;2023-04-15T03:39:08;99960.13;;;9.03;100.00
51031;BME280;37058;41.442;23.240;2023-04-15T03:41:34;99975.72;;;9.07;100.00
51031;BME280;37058;41.442;23.240;2023-04-15T03:44:00;99965.63;;;9.08;100.00
51031;BME280;37058;41.442;23.240;2023-04-15T03:46:26;99965.38;;;9.09;100.00
51031;BME280;37058;41.442;23.240;2023-04-15T03:48:52;99967.03;;;9.10;100.00
51031;BME280;37058;41.442;23.240;2023-04-15T03:51:18;99974.97;;;9.12;100.00
51031;BME280;37058;41.442;23.240;2023-04-15T03:53:44;99975.72;;;9.07;100.00
51031;BME280;37058;41.442;23.240;2023-04-15T03:56:10;99990.72;;;9.10;100.00
51031;BME280;37058;41.442;23.240;2023-04-15T03:58:35;99989.97;;;9.15;100.00
51031;BME280;37058;41.442;23.240;2023-04-15T04:01:01;99992.19;;;9.18;100.00
51031;BME280;37058;41.442;23.240;2023-04-15T04:03:27;99992.25;;;9.23;100.00
51031;BME280;37058;41.442;23.240;2023-04-15T04:05:53;99988.69;;;9.22;100.00
51031;BME280;37058;41.442;23.240;2023-04-15T04:08:19;99989.28;;;9.24;100.00
51031;BME280;37058;41.442;23.240;2023-04-15T04:10:46;99996.66;;;9.29;100.00
51031;BME280;37058;41.442;23.240;2023-04-15T04:13:12;99998.56;;;9.28;100.00
51031;BME280;37058;41.442;23.240;2023-04-15T04:15:38;100002.97;;;9.29;100.00
51031;BME280;37058;41.442;23.240;2023-04-15T04:18:03;100010.03;;;9.30;100.00
51031;BME280;37058;41.442;23.240;2023-04-15T04:20:29;100014.91;;;9.28;100.00
51031;BME280;37058;41.442;23.240;2023-04-15T04:22:57;100025.81;;;9.28;100.00
51031;BME280;37058;41.442;23.240;2023-04-15T04:25:23;100032.66;;;9.31;100.00
51031;BME280;37058;41.442;23.240;2023-04-15T04:27:49;100026.16;;;9.32;100.00
51031;BME280;37058;41.442;23.240;2023-04-15T04:30:15;100033.25;;;9.33;100.00
51031;BME280;37058;41.442;23.240;2023-04-15T04:32:41;100035.44;;;9.36;100.00
51031;BME280;37058;41.442;23.240;2023-04-15T04:35:08;100031.91;;;9.36;100.00
51031;BME280;37058;41.442;23.240;2023-04-15T04:37:34;100041.19;;;9.35;100.00
51031;BME280;37058;41.442;23.240;2023-04-15T04:39:59;100048.25;;;9.36;100.00
51031;BME280;37058;41.442;23.240;2023-04-15T04:42:25;100057.53;;;9.35;100.00
51031;BME280;37058;41.442;23.240;2023-04-15T04:44:51;100055.34;;;9.37;100.00
51031;BME280;37058;41.442;23.240;2023-04-15T04:47:18;100056.19;;;9.37;100.00
51031;BME280;37058;41.442;23.240;2023-04-15T04:49:43;100059.75;;;9.38;100.00
51031;BME280;37058;41.442;23.240;2023-04-15T04:52:09;100063.59;;;9.42;100.00
51031;BME280;37058;41.442;23.240;2023-04-15T04:54:36;100054.66;;;9.46;100.00
51031;BME280;37058;41.442;23.240;2023-04-15T04:57:02;100059.28;;;9.46;100.00
51031;BME280;37058;41.442;23.240;2023-04-15T04:59:27;100060.09;;;9.46;100.00
51031;BME280;37058;41.442;23.240;2023-04-15T05:01:53;100071.81;;;9.47;100.00
